sensor_id;sensor_type;location;lat;lon;timestamp;P1;durP1;ratioP1;P2;durP2;ratioP2
48651;SDS011;34442;52.362;-1.302;2022-09-09T00:02:20;1.10;;;0.90;;
48651;SDS011;34442;52.362;-1.302;2022-09-09T00:07:38;1.30;;;0.90;;
48651;SDS011;34442;52.362;-1.302;2022-09-09T00:10:16;0.93;;;0.70;;
48651;SDS011;34442;52.362;-1.302;2022-09-09T00:19:02;1.63;;;1.00;;
48651;SDS011;34442;52.362;-1.302;2022-09-09T00:21:38;2.00;;;0.90;;
48651;SDS011;34442;52.362;-1.302;2022-09-09T00:25:00;1.00;;;0.90;;
48651;SDS011;34442;52.362;-1.302;2022-09-09T00:27:19;1.55;;;1.02;;
48651;SDS011;34442;52.362;-1.302;2022-09-09T00:30:14;1.42;;;0.98;;
48651;SDS011;34442;52.362;-1.302;2022-09-09T00:32:49;1.35;;;0.90;;
48651;SDS011;34442;52.362;-1.302;2022-09-09T00:38:15;1.92;;;1.40;;
48651;SDS011;34442;52.362;-1.302;2022-09-09T00:43:40;1.85;;;1.00;;
48651;SDS011;34442;52.362;-1.302;2022-09-09T00:54:36;1.50;;;1.10;;
48651;SDS011;34442;52.362;-1.302;2022-09-09T00:57:18;2.30;;;1.10;;
48651;SDS011;34442;52.362;-1.302;2022-09-09T01:00:37;2.65;;;1.00;;
48651;SDS011;34442;52.362;-1.302;2022-09-09T01:05:37;1.88;;;1.20;;
48651;SDS011;34442;52.362;-1.302;2022-09-09T01:08:16;1.35;;;0.90;;
48651;SDS011;34442;52.362;-1.302;2022-09-09T01:11:04;2.67;;;1.20;;
48651;SDS011;34442;52.362;-1.302;2022-09-09T01:13:33;2.63;;;1.15;;
48651;SDS011;34442;52.362;-1.302;2022-09-09T01:16:03;2.90;;;1.23;;
48651;SDS011;34442;52.362;-1.302;2022-09-09T01:18:32;2.15;;;1.20;;
48651;SDS011;34442;52.362;-1.302;2022-09-09T01:28:57;2.70;;;1.17;;
48651;SDS011;34442;52.362;-1.302;2022-09-09T01:31:31;3.45;;;0.98;;
48651;SDS011;34442;52.362;-1.302;2022-09-09T01:34:01;2.38;;;1.02;;
48651;SDS011;34442;52.362;-1.302;2022-09-09T01:36:35;1.90;;;1.00;;
48651;SDS011;34442;52.362;-1.302;2022-09-09T01:39:24;1.45;;;1.00;;
48651;SDS011;34442;52.362;-1.302;2022-09-09T01:41:51;2.17;;;1.10;;
48651;SDS011;34442;52.362;-1.302;2022-09-09T01:44:19;1.35;;;0.90;;
48651;SDS011;34442;52.362;-1.302;2022-09-09T01:46:46;1.75;;;1.05;;
48651;SDS011;34442;52.362;-1.302;2022-09-09T01:49:12;2.83;;;1.27;;
48651;SDS011;34442;52.362;-1.302;2022-09-09T01:51:39;1.88;;;1.15;;
48651;SDS011;34442;52.362;-1.302;2022-09-09T01:54:07;4.53;;;1.45;;
48651;SDS011;34442;52.362;-1.302;2022-09-09T01:56:42;2.63;;;1.35;;
48651;SDS011;34442;52.362;-1.302;2022-09-09T02:02:20;3.00;;;1.20;;
48651;SDS011;34442;52.362;-1.302;2022-09-09T02:08:09;3.03;;;1.25;;
48651;SDS011;34442;52.362;-1.302;2022-09-09T02:11:11;2.38;;;1.35;;
48651;SDS011;34442;52.362;-1.302;2022-09-09T02:13:40;1.88;;;1.10;;
48651;SDS011;34442;52.362;-1.302;2022-09-09T02:16:11;4.13;;;1.60;;
48651;SDS011;34442;52.362;-1.302;2022-09-09T02:21:33;3.05;;;1.40;;
48651;SDS011;34442;52.362;-1.302;2022-09-09T02:24:03;2.88;;;1.45;;
48651;SDS011;34442;52.362;-1.302;2022-09-09T02:26:36;4.25;;;1.75;;
48651;SDS011;34442;52.362;-1.302;2022-09-09T02:29:08;1.92;;;1.13;;
48651;SDS011;34442;52.362;-1.302;2022-09-09T02:31:39;2.28;;;1.40;;
48651;SDS011;34442;52.362;-1.302;2022-09-09T02:34:07;4.43;;;1.55;;
48651;SDS011;34442;52.362;-1.302;2022-09-09T02:36:36;2.88;;;1.52;;
48651;SDS011;34442;52.362;-1.302;2022-09-09T02:39:05;3.13;;;1.45;;
48651;SDS011;34442;52.362;-1.302;2022-09-09T02:41:34;2.85;;;1.30;;
48651;SDS011;34442;52.362;-1.302;2022-09-09T02:44:05;3.45;;;1.50;;
48651;SDS011;34442;52.362;-1.302;2022-09-09T02:46:44;3.88;;;1.70;;
48651;SDS011;34442;52.362;-1.302;2022-09-09T02:49:18;3.20;;;1.50;;
48651;SDS011;34442;52.362;-1.302;2022-09-09T02:54:56;3.28;;;1.63;;
48651;SDS011;34442;52.362;-1.302;2022-09-09T02:57:29;4.53;;;2.28;;
48651;SDS011;34442;52.362;-1.302;2022-09-09T02:59:58;3.65;;;1.92;;
48651;SDS011;34442;52.362;-1.302;2022-09-09T03:02:25;3.67;;;1.90;;
48651;SDS011;34442;52.362;-1.302;2022-09-09T03:04:51;4.57;;;2.40;;
48651;SDS011;34442;52.362;-1.302;2022-09-09T03:07:18;4.07;;;2.03;;
48651;SDS011;34442;52.362;-1.302;2022-09-09T03:09:45;4.57;;;1.98;;
48651;SDS011;34442;52.362;-1.302;2022-09-09T03:12:11;3.80;;;1.70;;
48651;SDS011;34442;52.362;-1.302;2022-09-09T03:14:37;4.32;;;2.00;;
48651;SDS011;34442;52.362;-1.302;2022-09-09T03:17:04;5.22;;;2.67;;
48651;SDS011;34442;52.362;-1.302;2022-09-09T03:19:31;4.82;;;2.67;;
48651;SDS011;34442;52.362;-1.302;2022-09-09T03:21:57;4.38;;;2.58;;
48651;SDS011;34442;52.362;-1.302;2022-09-09T03:24:24;4.03;;;2.10;;
48651;SDS011;34442;52.362;-1.302;2022-09-09T03:26:50;4.38;;;2.20;;
48651;SDS011;34442;52.362;-1.302;2022-09-09T03:29:16;4.47;;;2.10;;
48651;SDS011;34442;52.362;-1.302;2022-09-09T03:31:45;3.67;;;1.98;;
48651;SDS011;34442;52.362;-1.302;2022-09-09T03:34:12;4.40;;;1.92;;
48651;SDS011;34442;52.362;-1.302;2022-09-09T03:36:39;5.75;;;2.55;;
48651;SDS011;34442;52.362;-1.302;2022-09-09T03:39:06;3.70;;;1.83;;
48651;SDS011;34442;52.362;-1.302;2022-09-09T03:41:32;5.75;;;2.10;;
48651;SDS011;34442;52.362;-1.302;2022-09-09T03:43:59;3.53;;;1.70;;
48651;SDS011;34442;52.362;-1.302;2022-09-09T03:46:25;5.10;;;2.30;;
48651;SDS011;34442;52.362;-1.302;2022-09-09T03:48:51;4.07;;;2.05;;
48651;SDS011;34442;52.362;-1.302;2022-09-09T03:51:18;3.90;;;2.03;;
48651;SDS011;34442;52.362;-1.302;2022-09-09T03:53:44;4.65;;;2.25;;
48651;SDS011;34442;52.362;-1.302;2022-09-09T03:56:10;4.50;;;2.70;;
48651;SDS011;34442;52.362;-1.302;2022-09-09T03:58:36;7.90;;;2.65;;
48651;SDS011;34442;52.362;-1.302;2022-09-09T04:01:04;6.78;;;3.20;;
48651;SDS011;34442;52.362;-1.302;2022-09-09T04:03:33;4.57;;;2.22;;
48651;SDS011;34442;52.362;-1.302;2022-09-09T04:06:00;4.97;;;2.40;;
48651;SDS011;34442;52.362;-1.302;2022-09-09T04:08:28;4.55;;;2.15;;
48651;SDS011;34442;52.362;-1.302;2022-09-09T04:10:57;5.30;;;2.55;;
48651;SDS011;34442;52.362;-1.302;2022-09-09T04:13:23;6.22;;;3.00;;
48651;SDS011;34442;52.362;-1.302;2022-09-09T04:15:51;5.30;;;2.72;;
48651;SDS011;34442;52.362;-1.302;2022-09-09T04:18:19;6.82;;;3.10;;
48651;SDS011;34442;52.362;-1.302;2022-09-09T04:20:48;5.43;;;2.80;;
48651;SDS011;34442;52.362;-1.302;2022-09-09T04:23:15;4.22;;;2.17;;
48651;SDS011;34442;52.362;-1.302;2022-09-09T04:25:44;4.55;;;2.30;;
48651;SDS011;34442;52.362;-1.302;2022-09-09T04:28:13;3.80;;;1.92;;
48651;SDS011;34442;52.362;-1.302;2022-09-09T04:30:39;4.38;;;2.20;;
48651;SDS011;34442;52.362;-1.302;2022-09-09T04:33:06;4.72;;;2.50;;
48651;SDS011;34442;52.362;-1.302;2022-09-09T04:35:32;6.90;;;3.00;;
48651;SDS011;34442;52.362;-1.302;2022-09-09T04:37:59;4.18;;;2.28;;
48651;SDS011;34442;52.362;-1.302;2022-09-09T04:40:25;6.00;;;3.17;;
48651;SDS011;34442;52.362;-1.302;2022-09-09T04:42:51;4.80;;;2.53;;
48651;SDS011;34442;52.362;-1.302;2022-09-09T04:45:17;5.43;;;2.70;;
48651;SDS011;34442;52.362;-1.302;2022-09-09T04:47:44;6.05;;;3.42;;
48651;SDS011;34442;52.362;-1.302;2022-09-09T04:50:09;5.00;;;2.47;;
48651;SDS011;34442;52.362;-1.302;2022-09-09T04:52:35;5.32;;;2.83;;
48651;SDS011;34442;52.362;-1.302;2022-09-09T04:55:01;4.25;;;2.25;;
48651;SDS011;34442;52.362;-1.302;2022-09-09T04:57:28;5.32;;;2.78;;
48651;SDS011;34442;52.362;-1.302;2022-09-09T04:59:54;4.82;;;2.40;;
48651;SDS011;34442;52.362;-1.302;2022-09-09T05:02:20;5.10;;;2.42;;
48651;SDS011;34442;52.362;-1.302;2022-09-09T05:04:46;5.80;;;3.10;;
48651;SDS011;34442;52.362;-1.302;2022-09-09T05:07:12;7.70;;;3.88;;
48651;SDS011;34442;52.362;-1.302;2022-09-09T05:09:40;9.68;;;3.83;;
48651;SDS011;34442;52.362;-1.302;2022-09-09T05:12:06;5.32;;;2.97;;
48651;SDS011;34442;52.362;-1.302;2022-09-09T05:14:32;5.32;;;2.92;;
48651;SDS011;34442;52.362;-1.302;2022-09-09T05:16:58;5.20;;;2.70;;
48651;SDS011;34442;52.362;-1.302;2022-09-09T05:19:24;5.53;;;3.30;;
48651;SDS011;34442;52.362;-1.302;2022-09-09T05:21:50;5.90;;;2.80;;
48651;SDS011;34442;52.362;-1.302;2022-09-09T05:24:16;5.25;;;2.90;;
48651;SDS011;34442;52.362;-1.302;2022-09-09T05:26:42;5.40;;;2.83;;
48651;SDS011;34442;52.362;-1.302;2022-09-09T05:29:09;4.05;;;2.20;;
48651;SDS011;34442;52.362;-1.302;2022-09-09T05:31:35;5.30;;;2.75;;
48651;SDS011;34442;52.362;-1.302;2022-09-09T05:34:02;5.43;;;2.90;;
48651;SDS011;34442;52.362;-1.302;2022-09-09T05:36:28;6.57;;;2.90;;
48651;SDS011;34442;52.362;-1.302;2022-09-09T05:38:54;5.32;;;2.83;;
48651;SDS011;34442;52.362;-1.302;2022-09-09T05:41:20;4.18;;;2.00;;
48651;SDS011;34442;52.362;-1.302;2022-09-09T05:43:46;4.70;;;2.35;;
48651;SDS011;34442;52.362;-1.302;2022-09-09T05:48:45;4.85;;;2.47;;
48651;SDS011;34442;52.362;-1.302;2022-09-09T05:51:13;4.47;;;2.10;;
48651;SDS011;34442;52.362;-1.302;2022-09-09T05:53:41;5.47;;;2.40;;
48651;SDS011;34442;52.362;-1.302;2022-09-09T05:56:09;4.75;;;2.30;;
48651;SDS011;34442;52.362;-1.302;2022-09-09T05:58:43;5.18;;;2.58;;
48651;SDS011;34442;52.362;-1.302;2022-09-09T06:01:10;5.20;;;2.45;;
48651;SDS011;34442;52.362;-1.302;2022-09-09T06:03:39;5.03;;;2.15;;
48651;SDS011;34442;52.362;-1.302;2022-09-09T06:06:07;4.97;;;2.40;;
48651;SDS011;34442;52.362;-1.302;2022-09-09T06:08:35;6.00;;;2.63;;
48651;SDS011;34442;52.362;-1.302;2022-09-09T06:11:04;4.88;;;2.40;;
48651;SDS011;34442;52.362;-1.302;2022-09-09T06:13:36;5.13;;;2.50;;
48651;SDS011;34442;52.362;-1.302;2022-09-09T06:16:04;5.85;;;2.60;;
48651;SDS011;34442;52.362;-1.302;2022-09-09T06:18:34;6.20;;;2.67;;
48651;SDS011;34442;52.362;-1.302;2022-09-09T06:21:01;5.38;;;2.78;;
48651;SDS011;34442;52.362;-1.302;2022-09-09T06:23:33;5.57;;;2.40;;
48651;SDS011;34442;52.362;-1.302;2022-09-09T06:26:06;5.85;;;2.50;;
48651;SDS011;34442;52.362;-1.302;2022-09-09T06:28:36;5.85;;;2.95;;
48651;SDS011;34442;52.362;-1.302;2022-09-09T06:31:03;6.47;;;3.17;;
48651;SDS011;34442;52.362;-1.302;2022-09-09T06:33:34;5.25;;;2.85;;
48651;SDS011;34442;52.362;-1.302;2022-09-09T06:36:02;6.47;;;2.90;;
48651;SDS011;34442;52.362;-1.302;2022-09-09T06:38:31;6.18;;;3.60;;
48651;SDS011;34442;52.362;-1.302;2022-09-09T06:40:58;5.80;;;2.70;;
48651;SDS011;34442;52.362;-1.302;2022-09-09T06:43:25;5.63;;;3.03;;
48651;SDS011;34442;52.362;-1.302;2022-09-09T06:45:55;5.32;;;2.97;;
48651;SDS011;34442;52.362;-1.302;2022-09-09T06:48:22;6.63;;;3.50;;
48651;SDS011;34442;52.362;-1.302;2022-09-09T06:50:49;5.50;;;2.85;;
48651;SDS011;34442;52.362;-1.302;2022-09-09T06:53:16;5.78;;;3.15;;
48651;SDS011;34442;52.362;-1.302;2022-09-09T06:55:45;8.35;;;2.97;;
48651;SDS011;34442;52.362;-1.302;2022-09-09T06:58:11;6.00;;;3.15;;
48651;SDS011;34442;52.362;-1.302;2022-09-09T07:00:37;5.78;;;3.10;;
48651;SDS011;34442;52.362;-1.302;2022-09-09T07:03:04;5.50;;;2.85;;
48651;SDS011;34442;52.362;-1.302;2022-09-09T07:05:31;5.57;;;2.65;;
48651;SDS011;34442;52.362;-1.302;2022-09-09T07:07:57;6.10;;;2.92;;
48651;SDS011;34442;52.362;-1.302;2022-09-09T07:10:24;6.20;;;3.00;;
48651;SDS011;34442;52.362;-1.302;2022-09-09T07:12:53;6.07;;;3.05;;
48651;SDS011;34442;52.362;-1.302;2022-09-09T07:15:19;7.00;;;3.20;;
48651;SDS011;34442;52.362;-1.302;2022-09-09T07:17:45;5.80;;;2.97;;
48651;SDS011;34442;52.362;-1.302;2022-09-09T07:20:12;6.75;;;3.72;;
48651;SDS011;34442;52.362;-1.302;2022-09-09T07:22:40;5.43;;;2.45;;
48651;SDS011;34442;52.362;-1.302;2022-09-09T07:25:07;6.18;;;3.40;;
48651;SDS011;34442;52.362;-1.302;2022-09-09T07:27:34;5.63;;;3.08;;
48651;SDS011;34442;52.362;-1.302;2022-09-09T07:30:00;7.85;;;4.03;;
48651;SDS011;34442;52.362;-1.302;2022-09-09T07:32:28;8.45;;;4.75;;
48651;SDS011;34442;52.362;-1.302;2022-09-09T07:34:56;6.65;;;3.63;;
48651;SDS011;34442;52.362;-1.302;2022-09-09T07:37:23;6.38;;;3.60;;
48651;SDS011;34442;52.362;-1.302;2022-09-09T07:39:49;6.47;;;3.25;;
48651;SDS011;34442;52.362;-1.302;2022-09-09T07:42:16;6.28;;;3.33;;
48651;SDS011;34442;52.362;-1.302;2022-09-09T07:44:43;5.80;;;2.92;;
48651;SDS011;34442;52.362;-1.302;2022-09-09T07:47:09;6.47;;;3.00;;
48651;SDS011;34442;52.362;-1.302;2022-09-09T07:49:35;5.82;;;2.67;;
48651;SDS011;34442;52.362;-1.302;2022-09-09T07:52:01;6.18;;;3.38;;
48651;SDS011;34442;52.362;-1.302;2022-09-09T07:54:27;5.88;;;3.17;;
48651;SDS011;34442;52.362;-1.302;2022-09-09T07:56:53;4.82;;;2.60;;
48651;SDS011;34442;52.362;-1.302;2022-09-09T07:59:19;6.28;;;3.30;;
48651;SDS011;34442;52.362;-1.302;2022-09-09T08:01:47;6.35;;;3.55;;
48651;SDS011;34442;52.362;-1.302;2022-09-09T08:04:15;7.75;;;3.85;;
48651;SDS011;34442;52.362;-1.302;2022-09-09T08:06:44;5.97;;;3.20;;
48651;SDS011;34442;52.362;-1.302;2022-09-09T08:09:15;5.15;;;2.80;;
48651;SDS011;34442;52.362;-1.302;2022-09-09T08:11:41;5.80;;;3.00;;
48651;SDS011;34442;52.362;-1.302;2022-09-09T08:14:08;5.65;;;2.90;;
48651;SDS011;34442;52.362;-1.302;2022-09-09T08:16:36;5.72;;;3.35;;
48651;SDS011;34442;52.362;-1.302;2022-09-09T08:19:04;6.72;;;3.60;;
48651;SDS011;34442;52.362;-1.302;2022-09-09T08:21:32;8.55;;;4.03;;
48651;SDS011;34442;52.362;-1.302;2022-09-09T08:24:00;7.30;;;4.43;;
48651;SDS011;34442;52.362;-1.302;2022-09-09T08:26:28;8.25;;;3.55;;
48651;SDS011;34442;52.362;-1.302;2022-09-09T08:28:56;5.97;;;3.13;;
48651;SDS011;34442;52.362;-1.302;2022-09-09T08:31:27;5.57;;;3.42;;
48651;SDS011;34442;52.362;-1.302;2022-09-09T08:33:55;6.18;;;3.20;;
48651;SDS011;34442;52.362;-1.302;2022-09-09T08:36:23;5.22;;;2.80;;
48651;SDS011;34442;52.362;-1.302;2022-09-09T08:38:52;6.07;;;3.30;;
48651;SDS011;34442;52.362;-1.302;2022-09-09T08:50:13;5.85;;;3.42;;
48651;SDS011;34442;52.362;-1.302;2022-09-09T08:53:00;5.35;;;2.80;;
48651;SDS011;34442;52.362;-1.302;2022-09-09T08:55:35;5.28;;;2.72;;
48651;SDS011;34442;52.362;-1.302;2022-09-09T08:58:08;5.25;;;2.78;;
48651;SDS011;34442;52.362;-1.302;2022-09-09T09:03:15;4.82;;;2.42;;
48651;SDS011;34442;52.362;-1.302;2022-09-09T09:08:26;5.18;;;2.92;;
48651;SDS011;34442;52.362;-1.302;2022-09-09T09:11:03;5.97;;;3.50;;
48651;SDS011;34442;52.362;-1.302;2022-09-09T09:13:35;5.85;;;3.72;;
48651;SDS011;34442;52.362;-1.302;2022-09-09T09:16:10;5.93;;;3.38;;
48651;SDS011;34442;52.362;-1.302;2022-09-09T09:18:52;5.00;;;2.88;;
48651;SDS011;34442;52.362;-1.302;2022-09-09T09:24:19;4.53;;;2.85;;
48651;SDS011;34442;52.362;-1.302;2022-09-09T09:26:51;7.30;;;4.13;;
48651;SDS011;34442;52.362;-1.302;2022-09-09T09:29:19;5.28;;;3.45;;
48651;SDS011;34442;52.362;-1.302;2022-09-09T09:31:53;7.00;;;2.55;;
48651;SDS011;34442;52.362;-1.302;2022-09-09T09:34:23;5.65;;;2.90;;
48651;SDS011;34442;52.362;-1.302;2022-09-09T09:36:53;4.30;;;2.20;;
48651;SDS011;34442;52.362;-1.302;2022-09-09T09:39:25;4.85;;;2.42;;
48651;SDS011;34442;52.362;-1.302;2022-09-09T09:41:53;4.85;;;2.45;;
48651;SDS011;34442;52.362;-1.302;2022-09-09T09:46:51;4.63;;;2.10;;
48651;SDS011;34442;52.362;-1.302;2022-09-09T09:49:18;4.13;;;2.33;;
48651;SDS011;34442;52.362;-1.302;2022-09-09T09:51:45;5.32;;;2.60;;
48651;SDS011;34442;52.362;-1.302;2022-09-09T09:56:38;5.07;;;2.10;;
48651;SDS011;34442;52.362;-1.302;2022-09-09T09:59:18;4.10;;;2.35;;
48651;SDS011;34442;52.362;-1.302;2022-09-09T10:01:48;3.15;;;1.88;;
48651;SDS011;34442;52.362;-1.302;2022-09-09T10:04:15;4.03;;;2.50;;
48651;SDS011;34442;52.362;-1.302;2022-09-09T10:06:45;4.50;;;2.38;;
48651;SDS011;34442;52.362;-1.302;2022-09-09T10:09:22;5.68;;;2.63;;
48651;SDS011;34442;52.362;-1.302;2022-09-09T10:14:19;5.18;;;2.85;;
48651;SDS011;34442;52.362;-1.302;2022-09-09T10:19:39;4.32;;;2.42;;
48651;SDS011;34442;52.362;-1.302;2022-09-09T10:27:41;3.65;;;1.77;;
48651;SDS011;34442;52.362;-1.302;2022-09-09T10:30:17;3.42;;;1.70;;
48651;SDS011;34442;52.362;-1.302;2022-09-09T10:35:39;4.82;;;2.10;;
48651;SDS011;34442;52.362;-1.302;2022-09-09T10:44:17;4.53;;;2.20;;
48651;SDS011;34442;52.362;-1.302;2022-09-09T10:52:21;5.40;;;2.47;;
48651;SDS011;34442;52.362;-1.302;2022-09-09T10:55:18;3.42;;;1.88;;
48651;SDS011;34442;52.362;-1.302;2022-09-09T10:57:47;4.55;;;2.20;;
48651;SDS011;34442;52.362;-1.302;2022-09-09T11:05:46;2.40;;;1.30;;
48651;SDS011;34442;52.362;-1.302;2022-09-09T11:08:21;3.30;;;1.50;;
48651;SDS011;34442;52.362;-1.302;2022-09-09T11:10:57;3.00;;;1.30;;
48651;SDS011;34442;52.362;-1.302;2022-09-09T11:16:48;2.90;;;1.40;;
48651;SDS011;34442;52.362;-1.302;2022-09-09T11:22:08;4.10;;;2.35;;
48651;SDS011;34442;52.362;-1.302;2022-09-09T11:25:03;4.10;;;2.00;;
48651;SDS011;34442;52.362;-1.302;2022-09-09T11:30:20;5.20;;;3.10;;
48651;SDS011;34442;52.362;-1.302;2022-09-09T11:38:51;4.05;;;1.80;;
48651;SDS011;34442;52.362;-1.302;2022-09-09T11:41:19;4.05;;;1.92;;
48651;SDS011;34442;52.362;-1.302;2022-09-09T11:43:47;4.70;;;2.13;;
48651;SDS011;34442;52.362;-1.302;2022-09-09T11:46:20;3.75;;;1.90;;
48651;SDS011;34442;52.362;-1.302;2022-09-09T11:49:00;2.83;;;1.23;;
48651;SDS011;34442;52.362;-1.302;2022-09-09T11:51:28;2.72;;;1.42;;
48651;SDS011;34442;52.362;-1.302;2022-09-09T11:53:59;3.03;;;1.58;;
48651;SDS011;34442;52.362;-1.302;2022-09-09T11:56:45;2.92;;;1.38;;
48651;SDS011;34442;52.362;-1.302;2022-09-09T11:59:33;1.45;;;1.10;;
48651;SDS011;34442;52.362;-1.302;2022-09-09T12:04:28;1.70;;;1.20;;
48651;SDS011;34442;52.362;-1.302;2022-09-09T12:07:01;2.38;;;1.48;;
48651;SDS011;34442;52.362;-1.302;2022-09-09T12:14:56;2.60;;;1.67;;
48651;SDS011;34442;52.362;-1.302;2022-09-09T12:17:52;2.22;;;1.38;;
48651;SDS011;34442;52.362;-1.302;2022-09-09T12:22:58;4.28;;;1.70;;
48651;SDS011;34442;52.362;-1.302;2022-09-09T12:28:22;3.38;;;1.58;;
48651;SDS011;34442;52.362;-1.302;2022-09-09T12:31:02;2.65;;;1.42;;
48651;SDS011;34442;52.362;-1.302;2022-09-09T12:33:36;4.88;;;2.00;;
48651;SDS011;34442;52.362;-1.302;2022-09-09T12:36:05;2.00;;;1.38;;
48651;SDS011;34442;52.362;-1.302;2022-09-09T12:38:39;3.33;;;1.63;;
48651;SDS011;34442;52.362;-1.302;2022-09-09T12:41:28;2.63;;;1.60;;
48651;SDS011;34442;52.362;-1.302;2022-09-09T12:44:03;3.22;;;1.70;;
48651;SDS011;34442;52.362;-1.302;2022-09-09T12:46:39;3.85;;;1.85;;
48651;SDS011;34442;52.362;-1.302;2022-09-09T12:49:26;3.95;;;2.28;;
48651;SDS011;34442;52.362;-1.302;2022-09-09T12:51:53;3.17;;;1.60;;
48651;SDS011;34442;52.362;-1.302;2022-09-09T12:54:20;2.78;;;1.40;;
48651;SDS011;34442;52.362;-1.302;2022-09-09T12:56:47;3.85;;;1.92;;
48651;SDS011;34442;52.362;-1.302;2022-09-09T12:59:24;3.85;;;1.30;;
48651;SDS011;34442;52.362;-1.302;2022-09-09T13:01:55;2.53;;;1.50;;
48651;SDS011;34442;52.362;-1.302;2022-09-09T13:04:24;2.85;;;1.63;;
48651;SDS011;34442;52.362;-1.302;2022-09-09T13:06:51;2.38;;;1.30;;
48651;SDS011;34442;52.362;-1.302;2022-09-09T13:09:17;2.00;;;1.08;;
48651;SDS011;34442;52.362;-1.302;2022-09-09T13:11:52;1.75;;;1.13;;
48651;SDS011;34442;52.362;-1.302;2022-09-09T13:14:25;2.67;;;1.20;;
48651;SDS011;34442;52.362;-1.302;2022-09-09T13:16:58;2.23;;;1.33;;
48651;SDS011;34442;52.362;-1.302;2022-09-09T13:19:26;1.63;;;0.95;;
48651;SDS011;34442;52.362;-1.302;2022-09-09T13:22:10;1.83;;;1.20;;
48651;SDS011;34442;52.362;-1.302;2022-09-09T13:24:45;3.95;;;1.67;;
48651;SDS011;34442;52.362;-1.302;2022-09-09T13:27:25;2.20;;;1.17;;
48651;SDS011;34442;52.362;-1.302;2022-09-09T13:29:54;2.45;;;1.50;;
48651;SDS011;34442;52.362;-1.302;2022-09-09T13:32:22;2.83;;;1.27;;
48651;SDS011;34442;52.362;-1.302;2022-09-09T13:34:54;2.10;;;1.10;;
48651;SDS011;34442;52.362;-1.302;2022-09-09T13:39:58;2.75;;;1.83;;
48651;SDS011;34442;52.362;-1.302;2022-09-09T13:42:29;3.95;;;1.70;;
48651;SDS011;34442;52.362;-1.302;2022-09-09T13:44:58;4.75;;;1.70;;
48651;SDS011;34442;52.362;-1.302;2022-09-09T13:47:30;2.25;;;1.20;;
48651;SDS011;34442;52.362;-1.302;2022-09-09T13:52:47;2.33;;;1.30;;
48651;SDS011;34442;52.362;-1.302;2022-09-09T13:55:14;2.75;;;1.55;;
48651;SDS011;34442;52.362;-1.302;2022-09-09T13:57:49;3.28;;;1.70;;
48651;SDS011;34442;52.362;-1.302;2022-09-09T14:00:23;3.25;;;1.75;;
48651;SDS011;34442;52.362;-1.302;2022-09-09T14:02:50;3.65;;;1.77;;
48651;SDS011;34442;52.362;-1.302;2022-09-09T14:05:17;3.22;;;1.52;;
48651;SDS011;34442;52.362;-1.302;2022-09-09T14:07:44;5.88;;;2.50;;
48651;SDS011;34442;52.362;-1.302;2022-09-09T14:10:11;3.33;;;1.85;;
48651;SDS011;34442;52.362;-1.302;2022-09-09T14:12:37;3.17;;;1.70;;
48651;SDS011;34442;52.362;-1.302;2022-09-09T14:15:04;4.97;;;2.17;;
48651;SDS011;34442;52.362;-1.302;2022-09-09T14:17:32;4.03;;;2.25;;
48651;SDS011;34442;52.362;-1.302;2022-09-09T14:19:58;4.35;;;2.30;;
48651;SDS011;34442;52.362;-1.302;2022-09-09T14:22:24;3.05;;;1.73;;
48651;SDS011;34442;52.362;-1.302;2022-09-09T14:24:51;5.18;;;2.42;;
48651;SDS011;34442;52.362;-1.302;2022-09-09T14:27:17;4.70;;;2.85;;
48651;SDS011;34442;52.362;-1.302;2022-09-09T14:29:44;4.70;;;2.70;;
48651;SDS011;34442;52.362;-1.302;2022-09-09T14:32:11;4.25;;;2.35;;
48651;SDS011;34442;52.362;-1.302;2022-09-09T14:34:37;4.07;;;2.17;;
48651;SDS011;34442;52.362;-1.302;2022-09-09T14:37:03;4.28;;;1.92;;
48651;SDS011;34442;52.362;-1.302;2022-09-09T14:39:30;3.47;;;1.98;;
48651;SDS011;34442;52.362;-1.302;2022-09-09T14:41:56;3.33;;;1.70;;
48651;SDS011;34442;52.362;-1.302;2022-09-09T14:44:22;2.67;;;1.55;;
48651;SDS011;34442;52.362;-1.302;2022-09-09T14:46:48;2.50;;;1.25;;
48651;SDS011;34442;52.362;-1.302;2022-09-09T14:49:16;2.70;;;1.30;;
48651;SDS011;34442;52.362;-1.302;2022-09-09T14:51:42;2.10;;;1.30;;
48651;SDS011;34442;52.362;-1.302;2022-09-09T14:54:08;2.78;;;1.40;;
48651;SDS011;34442;52.362;-1.302;2022-09-09T14:56:34;1.92;;;1.30;;
48651;SDS011;34442;52.362;-1.302;2022-09-09T14:59:00;2.33;;;1.33;;
48651;SDS011;34442;52.362;-1.302;2022-09-09T15:01:27;2.92;;;1.60;;
48651;SDS011;34442;52.362;-1.302;2022-09-09T15:04:01;3.03;;;1.52;;
48651;SDS011;34442;52.362;-1.302;2022-09-09T15:06:30;3.70;;;1.40;;
48651;SDS011;34442;52.362;-1.302;2022-09-09T15:08:59;2.30;;;1.20;;
48651;SDS011;34442;52.362;-1.302;2022-09-09T15:11:26;2.38;;;1.30;;
48651;SDS011;34442;52.362;-1.302;2022-09-09T15:13:53;2.85;;;1.70;;
48651;SDS011;34442;52.362;-1.302;2022-09-09T15:16:20;4.05;;;2.22;;
48651;SDS011;34442;52.362;-1.302;2022-09-09T15:18:50;4.55;;;2.45;;
48651;SDS011;34442;52.362;-1.302;2022-09-09T15:21:20;3.40;;;1.95;;
48651;SDS011;34442;52.362;-1.302;2022-09-09T15:23:48;3.80;;;1.73;;
48651;SDS011;34442;52.362;-1.302;2022-09-09T15:26:14;3.47;;;1.60;;
48651;SDS011;34442;52.362;-1.302;2022-09-09T15:28:41;2.20;;;1.35;;
48651;SDS011;34442;52.362;-1.302;2022-09-09T15:33:36;2.22;;;1.27;;
48651;SDS011;34442;52.362;-1.302;2022-09-09T15:36:16;2.20;;;1.20;;
48651;SDS011;34442;52.362;-1.302;2022-09-09T15:38:42;0.88;;;0.77;;
48651;SDS011;34442;52.362;-1.302;2022-09-09T15:41:09;2.00;;;1.10;;
48651;SDS011;34442;52.362;-1.302;2022-09-09T15:43:35;1.92;;;1.15;;
48651;SDS011;34442;52.362;-1.302;2022-09-09T15:48:43;3.08;;;1.60;;
48651;SDS011;34442;52.362;-1.302;2022-09-09T15:51:10;2.90;;;1.67;;
48651;SDS011;34442;52.362;-1.302;2022-09-09T15:53:37;3.70;;;1.90;;
48651;SDS011;34442;52.362;-1.302;2022-09-09T15:56:05;3.78;;;2.13;;
48651;SDS011;34442;52.362;-1.302;2022-09-09T15:58:32;4.22;;;2.35;;
48651;SDS011;34442;52.362;-1.302;2022-09-09T16:01:05;3.60;;;1.98;;
48651;SDS011;34442;52.362;-1.302;2022-09-09T16:03:42;4.05;;;1.73;;
48651;SDS011;34442;52.362;-1.302;2022-09-09T16:06:08;2.30;;;1.35;;
48651;SDS011;34442;52.362;-1.302;2022-09-09T16:08:36;2.47;;;1.30;;
48651;SDS011;34442;52.362;-1.302;2022-09-09T16:11:10;3.45;;;1.73;;
48651;SDS011;34442;52.362;-1.302;2022-09-09T16:16:06;1.88;;;1.23;;
48651;SDS011;34442;52.362;-1.302;2022-09-09T16:18:36;2.88;;;1.27;;
48651;SDS011;34442;52.362;-1.302;2022-09-09T16:21:14;1.88;;;1.00;;
48651;SDS011;34442;52.362;-1.302;2022-09-09T16:23:42;2.25;;;1.20;;
48651;SDS011;34442;52.362;-1.302;2022-09-09T16:26:13;1.83;;;1.10;;
48651;SDS011;34442;52.362;-1.302;2022-09-09T16:28:40;1.92;;;1.10;;
48651;SDS011;34442;52.362;-1.302;2022-09-09T16:31:07;2.38;;;1.10;;
48651;SDS011;34442;52.362;-1.302;2022-09-09T16:33:36;1.55;;;0.98;;
48651;SDS011;34442;52.362;-1.302;2022-09-09T16:36:06;2.50;;;1.25;;
48651;SDS011;34442;52.362;-1.302;2022-09-09T16:38:34;2.10;;;1.38;;
48651;SDS011;34442;52.362;-1.302;2022-09-09T16:41:01;2.88;;;1.30;;
48651;SDS011;34442;52.362;-1.302;2022-09-09T16:43:30;1.88;;;1.10;;
48651;SDS011;34442;52.362;-1.302;2022-09-09T16:45:57;1.90;;;1.00;;
48651;SDS011;34442;52.362;-1.302;2022-09-09T16:48:34;2.10;;;1.20;;
48651;SDS011;34442;52.362;-1.302;2022-09-09T16:51:01;2.28;;;1.23;;
48651;SDS011;34442;52.362;-1.302;2022-09-09T16:53:32;2.15;;;1.27;;
48651;SDS011;34442;52.362;-1.302;2022-09-09T16:56:04;2.35;;;1.40;;
48651;SDS011;34442;52.362;-1.302;2022-09-09T16:58:34;2.05;;;1.20;;
48651;SDS011;34442;52.362;-1.302;2022-09-09T17:01:01;2.53;;;1.20;;
48651;SDS011;34442;52.362;-1.302;2022-09-09T17:03:28;1.48;;;1.10;;
48651;SDS011;34442;52.362;-1.302;2022-09-09T17:05:55;1.98;;;1.10;;
48651;SDS011;34442;52.362;-1.302;2022-09-09T17:08:23;2.60;;;1.25;;
48651;SDS011;34442;52.362;-1.302;2022-09-09T17:10:50;1.90;;;1.17;;
48651;SDS011;34442;52.362;-1.302;2022-09-09T17:13:16;2.03;;;1.10;;